createdAt,value
2022-08-17T00:00:44.113Z,28.05
2022-08-17T00:03:18.309Z,24.05
2022-08-17T00:05:50.920Z,24.65
2022-08-17T00:08:42.005Z,25.48
2022-08-17T00:11:17.362Z,29.15
2022-08-17T00:13:51.530Z,31.08
2022-08-17T00:16:55.313Z,28.10
2022-08-17T00:19:23.067Z,25.33
2022-08-17T00:22:31.864Z,24.73
2022-08-17T00:24:44.759Z,27.65
2022-08-17T00:27:13.253Z,31.52
2022-08-17T00:29:42.257Z,31.17
2022-08-17T00:33:14.350Z,29.00
2022-08-17T00:34:59.329Z,27.35
2022-08-17T00:37:27.669Z,34.70
2022-08-17T00:39:56.199Z,30.58
2022-08-17T00:42:28.857Z,36.30
2022-08-17T00:44:59.356Z,30.95
2022-08-17T00:47:30.150Z,41.30
2022-08-17T00:49:58.784Z,30.60
2022-08-17T00:52:35.422Z,31.35
2022-08-17T00:55:06.179Z,27.88
2022-08-17T00:57:45.053Z,36.30
2022-08-17T01:00:21.399Z,41.95
2022-08-17T01:02:49.892Z,31.08
2022-08-17T01:05:25.449Z,28.50
2022-08-17T01:07:55.159Z,32.92
2022-08-17T01:11:00.083Z,28.42
2022-08-17T01:13:20.910Z,28.08
2022-08-17T01:15:57.833Z,29.52
2022-08-17T01:18:27.410Z,34.55
2022-08-17T01:21:01.839Z,32.13
2022-08-17T01:23:30.946Z,33.28
2022-08-17T01:26:02.772Z,31.35
2022-08-17T01:28:54.437Z,31.45
2022-08-17T01:31:25.463Z,32.50
2022-08-17T01:33:54.569Z,34.20
2022-08-17T01:36:23.821Z,29.05
2022-08-17T01:38:52.200Z,31.20
2022-08-17T01:41:22.708Z,30.33
2022-08-17T01:46:32.153Z,36.63
2022-08-17T01:49:01.660Z,33.55
2022-08-17T01:51:32.913Z,30.92
2022-08-17T01:54:08.523Z,32.63
2022-08-17T01:56:43.825Z,37.00
2022-08-17T01:59:18.366Z,32.58
2022-08-17T02:01:47.082Z,31.33
2022-08-17T02:04:15.639Z,31.67
2022-08-17T02:06:53.553Z,37.63
2022-08-17T02:09:29.809Z,34.63
2022-08-17T02:12:37.733Z,39.72
2022-08-17T02:14:48.981Z,39.80
2022-08-17T02:17:17.861Z,29.88
2022-08-17T02:19:46.237Z,35.25
2022-08-17T02:22:18.269Z,30.13
2022-08-17T02:25:00.419Z,41.15
2022-08-17T02:27:30.957Z,35.40
2022-08-17T02:29:59.334Z,32.47
2022-08-17T02:32:28.755Z,35.05
2022-08-17T02:34:58.504Z,37.10
2022-08-17T02:37:28.977Z,32.17
2022-08-17T02:42:33.923Z,32.13
2022-08-17T02:45:05.252Z,36.33
2022-08-17T02:47:34.324Z,37.15
2022-08-17T02:50:04.002Z,43.22
2022-08-17T02:52:41.954Z,36.55
2022-08-17T02:55:25.081Z,32.92
2022-08-17T02:57:53.951Z,32.72
2022-08-17T03:00:25.876Z,32.83
2022-08-17T03:02:56.514Z,32.95
2022-08-17T03:05:28.245Z,36.47
2022-08-17T03:07:57.429Z,30.92
2022-08-17T03:10:26.908Z,35.13
2022-08-17T03:12:55.722Z,43.95
2022-08-17T03:15:27.553Z,43.38
2022-08-17T03:17:57.216Z,34.65
2022-08-17T03:20:27.317Z,31.83
2022-08-17T03:23:02.009Z,36.42
2022-08-17T03:25:35.952Z,31.20
2022-08-17T03:28:06.823Z,31.85
2022-08-17T03:30:36.605Z,37.05
2022-08-17T03:33:07.295Z,36.75
2022-08-17T03:35:37.638Z,33.58
2022-08-17T03:38:07.537Z,37.30
2022-08-17T03:40:56.568Z,42.65
2022-08-17T03:43:25.503Z,37.72
2022-08-17T03:46:28.453Z,34.88
2022-08-17T03:49:22.923Z,39.42
2022-08-17T03:52:10.316Z,35.80
2022-08-17T03:54:58.111Z,38.28
2022-08-17T03:57:26.870Z,35.65
2022-08-17T03:59:56.044Z,39.28
2022-08-17T04:02:29.458Z,32.22
2022-08-17T04:04:58.423Z,40.85
2022-08-17T04:07:30.006Z,36.92
2022-08-17T04:09:59.530Z,43.40
2022-08-17T04:12:31.141Z,37.03
2022-08-17T04:14:59.873Z,40.03
2022-08-17T04:17:31.197Z,40.90
2022-08-17T04:19:59.578Z,37.05
2022-08-17T04:22:30.152Z,37.50
2022-08-17T04:25:24.206Z,48.17
2022-08-17T04:30:20.923Z,39.85
2022-08-17T04:33:03.746Z,42.83
2022-08-17T04:35:48.253Z,41.67
2022-08-17T04:38:20.198Z,48.03
2022-08-17T04:41:07.979Z,39.58
2022-08-17T04:43:39.785Z,51.45
2022-08-17T04:46:11.167Z,48.05
2022-08-17T04:48:43.148Z,49.35
2022-08-17T04:51:16.883Z,54.03
2022-08-17T04:53:54.489Z,52.22
2022-08-17T04:56:25.935Z,52.03
2022-08-17T04:58:58.145Z,53.90
2022-08-17T05:01:29.245Z,49.58
2022-08-17T05:03:59.855Z,42.13
2022-08-17T05:06:30.753Z,51.40
2022-08-17T05:08:59.946Z,55.92
2022-08-17T05:11:30.089Z,53.33
2022-08-17T05:13:58.907Z,49.50
2022-08-17T05:16:28.698Z,46.72
2022-08-17T05:18:58.648Z,46.45
2022-08-17T05:21:27.522Z,45.10
2022-08-17T05:23:58.563Z,44.03
2022-08-17T05:26:29.332Z,49.10
2022-08-17T05:29:03.001Z,48.35
2022-08-17T05:31:31.497Z,52.92
2022-08-17T05:34:02.281Z,43.17
2022-08-17T05:36:41.764Z,49.92
2022-08-17T05:39:16.277Z,49.67
2022-08-17T05:41:47.726Z,51.20
2022-08-17T05:44:17.145Z,49.40
2022-08-17T05:46:51.930Z,44.58
2022-08-17T05:49:27.685Z,38.22
2022-08-17T05:52:23.529Z,42.58
2022-08-17T05:55:32.774Z,52.72
2022-08-17T05:58:13.170Z,53.90
2022-08-17T06:01:03.219Z,56.90
2022-08-17T06:03:43.353Z,59.88
2022-08-17T06:06:31.319Z,61.30
2022-08-17T06:09:24.807Z,59.80
2022-08-17T06:12:21.453Z,62.28
2022-08-17T06:15:04.181Z,80.07
2022-08-17T06:17:33.942Z,66.00
2022-08-17T06:20:08.399Z,57.40
2022-08-17T06:22:44.742Z,62.88
2022-08-17T06:25:38.108Z,61.40
2022-08-17T06:28:14.231Z,63.13
2022-08-17T06:31:01.114Z,55.83
2022-08-17T06:33:36.880Z,64.75
2022-08-17T06:36:30.149Z,65.30
2022-08-17T06:39:31.497Z,71.40
2022-08-17T06:43:04.981Z,58.88
2022-08-17T06:45:20.285Z,65.70
2022-08-17T06:48:26.017Z,72.47
2022-08-17T06:51:00.025Z,73.28
2022-08-17T06:53:34.813Z,78.55
2022-08-17T06:56:13.566Z,81.40
2022-08-17T06:58:44.876Z,75.57
2022-08-17T07:01:24.895Z,61.30
2022-08-17T07:03:59.433Z,67.60
2022-08-17T07:06:38.487Z,58.95
2022-08-17T07:09:15.827Z,66.85
2022-08-17T07:11:52.903Z,64.80
2022-08-17T07:14:43.334Z,67.03
2022-08-17T07:17:15.657Z,69.90
2022-08-17T07:19:46.847Z,72.07
2022-08-17T07:22:59.557Z,67.20
2022-08-17T07:25:33.921Z,66.60
2022-08-17T07:28:07.437Z,77.40
2022-08-17T07:30:46.892Z,64.38
2022-08-17T07:33:20.493Z,67.15
2022-08-17T07:35:50.946Z,70.43
2022-08-17T07:38:33.311Z,82.30
2022-08-17T07:41:06.806Z,71.65
2022-08-17T07:43:41.187Z,86.25
2022-08-17T07:46:52.800Z,81.80
2022-08-17T07:49:31.690Z,84.60
2022-08-17T07:52:50.843Z,79.63
2022-08-17T07:55:35.009Z,86.88
2022-08-17T07:58:03.614Z,74.82
2022-08-17T08:00:33.662Z,79.60
2022-08-17T08:03:15.517Z,77.35
2022-08-17T08:06:00.794Z,81.32
2022-08-17T08:08:42.818Z,79.45
2022-08-17T08:11:27.963Z,90.13
2022-08-17T08:14:29.322Z,89.55
2022-08-17T08:17:05.872Z,94.63
2022-08-17T08:19:34.329Z,87.22
2022-08-17T08:22:11.197Z,85.15
2022-08-17T08:24:55.586Z,88.63
2022-08-17T08:27:27.286Z,77.13
2022-08-17T08:30:02.955Z,91.22
2022-08-17T08:32:50.302Z,78.28
2022-08-17T08:35:44.495Z,73.80
2022-08-17T08:38:44.346Z,81.53
2022-08-17T08:41:55.390Z,77.53
2022-08-17T08:45:00.282Z,64.97
2022-08-17T08:48:05.099Z,60.63
2022-08-17T08:50:37.911Z,61.58
2022-08-17T08:53:30.432Z,54.20
2022-08-17T08:56:16.565Z,48.92
2022-08-17T08:59:10.669Z,43.03
2022-08-17T09:01:41.917Z,47.28
2022-08-17T09:05:10.601Z,53.97
2022-08-17T09:07:42.364Z,41.47
2022-08-17T09:10:27.035Z,38.78
2022-08-17T09:13:22.121Z,35.92
2022-08-17T09:16:15.328Z,36.80
2022-08-17T09:19:01.393Z,33.45
2022-08-17T09:21:48.735Z,32.15
2022-08-17T09:24:28.488Z,32.30
2022-08-17T09:27:15.157Z,30.90
2022-08-17T09:29:54.324Z,27.08
2022-08-17T09:32:39.406Z,23.85
2022-08-17T09:35:20.748Z,28.50
2022-08-17T09:38:10.251Z,35.75
2022-08-17T09:41:01.643Z,42.35
2022-08-17T09:44:23.382Z,51.50
2022-08-17T09:47:10.344Z,45.00
2022-08-17T09:49:49.352Z,45.03
2022-08-17T09:52:24.963Z,47.80
2022-08-17T09:54:55.919Z,46.08
2022-08-17T09:57:59.034Z,44.22
2022-08-17T10:00:35.654Z,39.85
2022-08-17T10:03:08.801Z,35.17
2022-08-17T10:05:59.903Z,35.15
2022-08-17T10:09:08.305Z,37.63
2022-08-17T10:12:02.466Z,40.05
2022-08-17T10:14:44.187Z,47.53
2022-08-17T10:17:13.841Z,40.88
2022-08-17T10:20:05.975Z,39.97
2022-08-17T10:23:07.629Z,41.40
2022-08-17T10:26:01.191Z,39.28
2022-08-17T10:28:39.062Z,45.30
2022-08-17T10:31:33.838Z,43.28
2022-08-17T10:34:42.028Z,44.47
2022-08-17T10:37:19.639Z,41.15
2022-08-17T10:40:12.111Z,43.88
2022-08-17T10:42:55.197Z,39.78
2022-08-17T10:45:35.009Z,38.40
2022-08-17T10:48:07.197Z,41.88
2022-08-17T10:50:56.183Z,36.30
2022-08-17T10:53:48.597Z,39.97
2022-08-17T10:56:23.490Z,33.20
2022-08-17T10:58:59.570Z,32.83
2022-08-17T11:01:49.520Z,34.28
2022-08-17T11:04:18.027Z,32.42
2022-08-17T11:07:16.436Z,28.65
2022-08-17T11:10:03.624Z,26.80
2022-08-17T11:12:38.089Z,27.15
2022-08-17T11:15:31.499Z,23.88
2022-08-17T11:18:12.157Z,21.10
2022-08-17T11:21:17.431Z,19.73
2022-08-17T11:23:45.681Z,17.90
2022-08-17T11:26:29.711Z,17.17
2022-08-17T11:29:05.189Z,17.13
2022-08-17T11:31:44.863Z,15.35
2022-08-17T11:34:26.237Z,17.52
2022-08-17T11:37:03.784Z,17.67
2022-08-17T11:40:06.935Z,18.15
2022-08-17T11:43:09.579Z,17.65
2022-08-17T11:45:53.736Z,19.00
2022-08-17T11:48:55.884Z,19.50
2022-08-17T11:51:55.811Z,21.95
2022-08-17T11:54:33.333Z,17.98
2022-08-17T11:57:25.790Z,18.33
2022-08-17T12:00:36.268Z,21.02
2022-08-17T12:03:34.560Z,20.80
2022-08-17T12:06:17.685Z,20.48
2022-08-17T12:08:55.212Z,20.38
2022-08-17T12:11:58.767Z,16.17
2022-08-17T12:14:45.492Z,19.85
2022-08-17T12:17:39.217Z,21.25
2022-08-17T12:20:32.422Z,17.60
2022-08-17T12:23:15.818Z,20.00
2022-08-17T12:26:17.574Z,17.05
2022-08-17T12:28:50.470Z,19.63
2022-08-17T12:31:27.192Z,16.38
2022-08-17T12:33:56.195Z,21.52
2022-08-17T12:36:28.247Z,20.13
2022-08-17T12:39:12.835Z,18.80
2022-08-17T12:41:50.349Z,18.70
2022-08-17T12:44:31.714Z,19.55
2022-08-17T12:47:04.549Z,21.13
2022-08-17T12:49:38.463Z,23.52
2022-08-17T12:52:19.919Z,22.50
2022-08-17T12:54:54.138Z,19.45
2022-08-17T12:57:25.949Z,17.23
2022-08-17T12:59:58.929Z,15.07
2022-08-17T13:02:32.810Z,20.45
2022-08-17T13:05:02.155Z,17.42
2022-08-17T13:07:42.604Z,16.00
2022-08-17T13:12:44.724Z,16.45
2022-08-17T13:15:20.543Z,15.50
2022-08-17T13:17:59.497Z,15.68
2022-08-17T13:20:27.952Z,15.23
2022-08-17T13:22:59.844Z,19.15
2022-08-17T13:25:29.832Z,14.98
2022-08-17T13:27:58.803Z,16.77
2022-08-17T13:30:32.880Z,17.92
2022-08-17T13:33:04.705Z,16.75
2022-08-17T13:35:50.250Z,15.25
2022-08-17T13:38:41.365Z,12.85
2022-08-17T13:41:29.829Z,13.57
2022-08-17T13:43:58.093Z,15.27
2022-08-17T13:46:32.688Z,12.65
2022-08-17T13:49:12.227Z,14.60
2022-08-17T13:51:46.397Z,15.40
2022-08-17T13:54:27.085Z,11.98
2022-08-17T13:57:21.806Z,12.60
2022-08-17T13:59:58.170Z,16.02
2022-08-17T14:02:28.913Z,18.20
2022-08-17T14:04:58.987Z,16.23
2022-08-17T14:07:33.862Z,14.15
2022-08-17T14:10:29.865Z,11.68
2022-08-17T14:12:58.271Z,15.32
2022-08-17T14:15:54.912Z,16.48
2022-08-17T14:18:18.981Z,18.15
2022-08-17T14:21:08.748Z,15.45
2022-08-17T14:23:37.615Z,11.65
2022-08-17T14:26:06.008Z,10.20
2022-08-17T14:28:36.390Z,15.15
2022-08-17T14:31:08.417Z,12.50
2022-08-17T14:33:37.375Z,12.07
2022-08-17T14:36:09.801Z,11.07
2022-08-17T14:38:41.873Z,11.55
2022-08-17T14:41:11.185Z,14.23
2022-08-17T14:43:39.956Z,14.02
2022-08-17T14:46:08.271Z,12.02
2022-08-17T14:48:38.680Z,16.85
2022-08-17T14:51:07.209Z,13.63
2022-08-17T14:53:36.647Z,13.30
2022-08-17T14:56:08.968Z,15.30
2022-08-17T14:58:39.007Z,13.73
2022-08-17T15:01:12.484Z,13.18
2022-08-17T15:03:42.035Z,14.40
2022-08-17T15:06:14.650Z,12.48
2022-08-17T15:08:44.763Z,15.73
2022-08-17T15:11:14.758Z,17.73
2022-08-17T15:13:52.904Z,15.00
2022-08-17T15:16:22.291Z,13.63
2022-08-17T15:18:52.651Z,17.15
2022-08-17T15:21:22.297Z,16.00
2022-08-17T15:23:53.429Z,14.65
2022-08-17T15:26:26.209Z,17.50
2022-08-17T15:28:56.693Z,13.43
2022-08-17T15:31:31.970Z,11.85
2022-08-17T15:34:00.906Z,16.20
2022-08-17T15:36:29.254Z,13.68
2022-08-17T15:38:59.508Z,15.45
2022-08-17T15:41:28.405Z,15.30
2022-08-17T15:43:57.077Z,17.52
2022-08-17T15:46:26.302Z,13.73
2022-08-17T15:49:00.277Z,18.83
2022-08-17T15:51:34.972Z,10.93
2022-08-17T15:54:19.241Z,13.73
2022-08-17T15:56:50.989Z,14.57
2022-08-17T15:59:19.457Z,12.35
2022-08-17T16:03:15.302Z,9.90
2022-08-17T16:04:40.247Z,12.60
2022-08-17T16:07:13.444Z,15.35
2022-08-17T16:09:42.372Z,12.90
2022-08-17T16:12:14.373Z,14.35
2022-08-17T16:14:43.740Z,11.18
2022-08-17T16:17:40.080Z,13.25
2022-08-17T16:20:02.228Z,12.77
2022-08-17T16:22:39.390Z,13.73
2022-08-17T16:25:15.071Z,11.40
2022-08-17T16:27:44.390Z,12.80
2022-08-17T16:30:17.600Z,15.02
2022-08-17T16:32:47.412Z,8.45
2022-08-17T16:35:20.503Z,18.97
2022-08-17T16:37:49.006Z,18.80
2022-08-17T16:40:17.533Z,13.85
2022-08-17T16:42:48.481Z,20.60
2022-08-17T16:45:23.582Z,14.43
2022-08-17T16:47:55.163Z,18.05
2022-08-17T16:50:24.054Z,10.53
2022-08-17T16:52:52.666Z,8.30
2022-08-17T16:55:22.662Z,7.60
2022-08-17T16:57:51.061Z,6.55
2022-08-17T17:00:20.947Z,13.52
2022-08-17T17:02:49.770Z,10.02
2022-08-17T17:05:33.395Z,10.20
2022-08-17T17:08:09.348Z,11.68
2022-08-17T17:10:37.750Z,14.48
2022-08-17T17:13:16.909Z,10.35
2022-08-17T17:16:06.433Z,14.10
2022-08-17T17:19:35.115Z,11.50
2022-08-17T17:22:13.431Z,17.75
2022-08-17T17:24:50.384Z,14.68
2022-08-17T17:27:29.621Z,29.15
2022-08-17T17:30:03.971Z,28.60
2022-08-17T17:32:38.078Z,21.40
2022-08-17T17:35:38.017Z,14.23
2022-08-17T17:38:15.297Z,7.85
2022-08-17T17:40:50.942Z,7.13
2022-08-17T17:43:39.045Z,14.82
2022-08-17T17:46:27.895Z,16.83
2022-08-17T17:49:01.410Z,7.75
2022-08-17T17:52:06.302Z,10.38
2022-08-17T17:54:40.278Z,9.77
2022-08-17T17:57:37.211Z,11.82
2022-08-17T18:00:11.680Z,6.95
2022-08-17T18:03:05.138Z,6.68
2022-08-17T18:05:36.750Z,8.20
2022-08-17T18:08:11.913Z,9.55
2022-08-17T18:10:48.921Z,8.88
2022-08-17T18:13:29.702Z,12.63
2022-08-17T18:16:01.063Z,24.13
2022-08-17T18:18:38.259Z,13.50
2022-08-17T18:21:20.724Z,15.90
2022-08-17T18:24:00.985Z,18.42
2022-08-17T18:26:37.837Z,11.25
2022-08-17T18:29:28.087Z,15.40
2022-08-17T18:32:32.416Z,17.60
2022-08-17T18:35:27.829Z,12.52
2022-08-17T18:38:20.638Z,13.70
2022-08-17T18:41:21.840Z,17.20
2022-08-17T18:44:22.255Z,14.85
2022-08-17T18:47:28.630Z,16.27
2022-08-17T18:50:28.073Z,10.18
2022-08-17T18:53:30.346Z,9.25
2022-08-17T18:56:20.663Z,10.82
2022-08-17T18:59:00.680Z,9.93
2022-08-17T19:01:53.555Z,5.50
2022-08-17T19:04:36.589Z,6.43
2022-08-17T19:07:07.334Z,4.22
2022-08-17T19:09:42.758Z,3.70
2022-08-17T19:12:26.963Z,6.30
2022-08-17T19:14:58.513Z,5.38
2022-08-17T19:17:42.178Z,7.82
2022-08-17T19:20:14.546Z,8.82
2022-08-17T19:22:56.443Z,9.60
2022-08-17T19:25:30.670Z,17.73
2022-08-17T19:28:22.630Z,19.73
2022-08-17T19:30:57.737Z,17.83
2022-08-17T19:33:32.837Z,19.33
2022-08-17T19:36:11.876Z,15.20
2022-08-17T19:39:04.574Z,15.15
2022-08-17T19:42:05.538Z,16.88
2022-08-17T19:44:48.808Z,9.65
2022-08-17T19:47:54.753Z,15.18
2022-08-17T19:50:39.217Z,14.57
2022-08-17T19:54:01.705Z,14.35
2022-08-17T19:56:44.691Z,16.42
2022-08-17T19:59:22.056Z,11.02
2022-08-17T20:02:03.063Z,9.65
2022-08-17T20:04:42.627Z,15.55
2022-08-17T20:07:20.288Z,9.50
2022-08-17T20:10:03.764Z,10.05
2022-08-17T20:12:38.640Z,16.27
2022-08-17T20:15:22.121Z,14.82
2022-08-17T20:17:50.999Z,11.52
2022-08-17T20:20:38.320Z,10.27
2022-08-17T20:23:31.163Z,12.05
2022-08-17T20:26:34.880Z,15.98
2022-08-17T20:29:14.358Z,10.52
2022-08-17T20:31:54.629Z,10.85
2022-08-17T20:34:36.685Z,11.13
2022-08-17T20:37:15.438Z,7.90
2022-08-17T20:40:07.848Z,6.68
2022-08-17T20:42:37.016Z,6.95
2022-08-17T20:45:20.710Z,11.55
2022-08-17T20:48:18.506Z,12.52
2022-08-17T20:50:47.389Z,17.83
2022-08-17T20:53:47.623Z,12.93
2022-08-17T20:56:43.884Z,10.18
2022-08-17T20:59:40.160Z,8.65
2022-08-17T21:02:18.388Z,11.85
2022-08-17T21:04:50.394Z,10.20
2022-08-17T21:07:41.144Z,6.95
2022-08-17T21:10:21.241Z,9.88
2022-08-17T21:13:02.736Z,10.52
2022-08-17T21:15:51.792Z,11.88
2022-08-17T21:18:29.094Z,8.38
2022-08-17T21:21:17.730Z,21.90
2022-08-17T21:24:14.692Z,12.43
2022-08-17T21:27:01.901Z,11.75
2022-08-17T21:29:33.936Z,16.10
2022-08-17T21:32:09.468Z,16.52
2022-08-17T21:34:43.233Z,17.15
2022-08-17T21:37:23.800Z,15.80
2022-08-17T21:44:58.088Z,15.23
2022-08-17T21:47:29.544Z,17.17
2022-08-17T21:50:18.726Z,18.38
2022-08-17T21:52:48.933Z,14.50
2022-08-17T21:55:22.017Z,13.63
2022-08-17T21:57:53.250Z,20.15
2022-08-17T22:00:39.300Z,20.83
2022-08-17T22:03:23.455Z,11.27
2022-08-17T22:05:51.915Z,18.23
2022-08-17T22:08:24.001Z,16.05
2022-08-17T22:11:02.356Z,19.60
2022-08-17T22:13:30.724Z,20.00
2022-08-17T22:16:15.454Z,22.58
2022-08-17T22:18:58.791Z,21.80
2022-08-17T22:24:22.744Z,17.58
2022-08-17T22:27:12.874Z,20.15
2022-08-17T22:29:57.900Z,15.15
2022-08-17T22:32:43.809Z,20.83
2022-08-17T22:35:26.690Z,18.50
2022-08-17T22:37:57.041Z,16.30
2022-08-17T22:40:31.168Z,18.83
2022-08-17T22:43:01.649Z,20.48
2022-08-17T22:45:30.420Z,27.02
2022-08-17T22:48:00.968Z,16.95
2022-08-17T22:53:43.009Z,23.40
2022-08-17T22:56:37.107Z,20.88
2022-08-17T22:59:20.728Z,20.05
2022-08-17T23:02:13.687Z,16.30
2022-08-17T23:04:57.499Z,20.38
2022-08-17T23:07:26.002Z,23.23
2022-08-17T23:09:54.902Z,22.70
2022-08-17T23:12:26.539Z,26.73
2022-08-17T23:15:00.933Z,31.70
2022-08-17T23:17:36.941Z,24.98
2022-08-17T23:20:24.369Z,13.73
2022-08-17T23:23:19.644Z,25.02
2022-08-17T23:25:50.244Z,20.52
2022-08-17T23:28:18.627Z,16.83
2022-08-17T23:30:48.898Z,16.25
2022-08-17T23:33:29.992Z,26.73
2022-08-17T23:36:02.361Z,22.50
2022-08-17T23:38:32.906Z,25.23
2022-08-17T23:43:31.769Z,22.48
2022-08-17T23:46:00.751Z,16.13
2022-08-17T23:48:35.877Z,17.15
2022-08-17T23:51:10.776Z,20.60
2022-08-17T23:53:44.740Z,22.98
2022-08-17T23:56:14.081Z,22.77
2022-08-17T23:58:44.728Z,24.70
